Terminal Aerodrome Forecast
Issued by NWS Omaha/Valley, NE

Home | Current Version | Previous Version | Graphics & Text | Print | Product List | Glossary On
Versions: 1 2 3 4 5 6 7 8 9 10 11 12 13 14 15 16
000
FTUS43 KOAX 221445 AAA
TAFOFK
TAF AMD
KOFK 221445Z 2215/2312 14012KT P6SM SCT120
     FM221800 16013G21KT P6SM BKN120
     FM230000 15013KT P6SM BKN250
     FM230500 14015G22KT P6SM SCT080 BKN150 WS018/17045KT PROB30
      2308/2312 6SM -SHRA BKN080=

USA.gov is the U.S. government's official web portal to all federal, state and local government web resources and services.